Time;durP1;ratioP1;P1;durP2;ratioP2;P2;SDS_P1;SDS_P2;PMS_P1;PMS_P2;Temp;Humidity;BMP_temperature;BMP_pressure;BME280_temperature;BME280_humidity;BME280_pressure;Samples;Min_cycle;Max_cycle;Signal;HPM_P1;HPM_P2
2022/11/08 00:03:35;;;;;;;10.43;3.30;;;13.10;99.90;;;;;;4966635;28;20042;-79
2022/11/08 00:14:13;;;;;;;8.18;3.03;;;13.10;99.90;;;;;;4954705;28;20038;-80
2022/11/08 00:16:39;;;;;;;11.63;3.17;;;12.40;99.90;;;;;;4952400;28;20038;-80
2022/11/08 00:19:04;;;;;;;10.65;3.10;;;13.20;99.90;;;;;;4945513;29;20250;-80
2022/11/08 00:21:30;;;;;;;7.93;3.10;;;12.80;99.90;;;;;;4963511;28;20066;-80
2022/11/08 00:23:56;;;;;;;10.90;3.20;;;13.00;99.90;;;;;;4949561;28;20240;-80
2022/11/08 00:26:21;;;;;;;13.45;3.63;;;12.50;99.90;;;;;;4922599;28;20034;-80
2022/11/08 00:28:47;;;;;;;10.57;3.80;;;13.10;99.90;;;;;;4940685;28;20110;-80
2022/11/08 00:31:13;;;;;;;9.38;2.92;;;12.90;99.90;;;;;;4943029;28;20045;-80
2022/11/08 00:36:46;;;;;;;14.55;4.03;;;12.70;99.90;;;;;;4994740;28;20043;-78
2022/11/08 00:39:12;;;;;;;8.68;2.85;;;13.10;99.90;;;;;;4963745;28;20084;-79
2022/11/08 00:41:37;;;;;;;11.98;2.88;;;13.10;99.90;;;;;;4951291;28;20079;-79
2022/11/08 00:44:06;;;;;;;10.25;3.03;;;13.10;99.90;;;;;;4965947;28;20068;-80
2022/11/08 00:46:32;;;;;;;10.38;3.75;;;13.10;99.90;;;;;;4961719;28;20050;-80
2022/11/08 00:48:58;;;;;;;9.27;3.47;;;12.60;99.90;;;;;;4954480;28;20066;-79
2022/11/08 00:51:23;;;;;;;7.95;3.03;;;13.00;99.90;;;;;;4994019;28;20088;-81
2022/11/08 00:53:49;;;;;;;9.00;3.80;;;13.20;99.90;;;;;;4967056;28;20327;-79
2022/11/08 00:56:15;;;;;;;11.70;3.10;;;12.60;99.90;;;;;;5000723;28;20031;-80
2022/11/08 00:58:40;;;;;;;11.35;3.85;;;13.10;99.90;;;;;;5003235;28;20034;-80
2022/11/08 01:04:37;;;;;;;7.88;2.50;;;14.30;99.90;;;;;;4919120;29;20044;-80
2022/11/08 01:07:03;;;;;;;8.95;2.83;;;13.50;99.90;;;;;;4949054;28;20037;-80
2022/11/08 01:09:28;;;;;;;6.40;2.78;;;13.20;99.90;;;;;;4948954;28;20598;-81
2022/11/08 01:11:54;;;;;;;8.02;2.90;;;12.90;99.90;;;;;;4959330;29;20393;-80
2022/11/08 01:14:20;;;;;;;7.05;3.97;;;12.60;99.90;;;;;;4944828;29;20032;-81
2022/11/08 01:16:45;;;;;;;10.38;3.35;;;13.20;99.90;;;;;;4950069;28;20037;-80
2022/11/08 01:19:11;;;;;;;10.25;3.45;;;12.90;99.90;;;;;;4959760;28;20206;-79
2022/11/08 01:21:37;;;;;;;5.95;2.78;;;12.60;99.90;;;;;;4933606;28;20089;-79
2022/11/08 01:24:03;;;;;;;7.10;3.33;;;13.00;99.90;;;;;;4915961;29;20139;-80
2022/11/08 01:26:29;;;;;;;9.73;3.00;;;13.00;99.90;;;;;;4951700;28;20023;-80
2022/11/08 01:29:12;;;;;;;8.45;2.88;;;12.80;99.90;;;;;;4955014;28;20110;-80
2022/11/08 01:31:40;;;;;;;7.25;2.33;;;13.20;99.90;;;;;;4966926;28;20042;-80
2022/11/08 01:34:06;;;;;;;8.70;2.83;;;12.60;99.90;;;;;;4936173;29;20081;-78
2022/11/08 01:36:32;;;;;;;11.32;3.67;;;12.50;99.90;;;;;;4943672;28;20043;-79
2022/11/08 01:38:57;;;;;;;10.45;3.20;;;12.50;99.90;;;;;;4945141;29;20035;-78
2022/11/08 01:41:25;;;;;;;12.45;2.80;;;12.90;99.90;;;;;;4948323;28;20035;-79
2022/11/08 01:43:58;;;;;;;6.47;2.53;;;12.90;99.90;;;;;;4931919;28;20043;-80
2022/11/08 01:46:27;;;;;;;8.80;3.08;;;12.80;99.90;;;;;;4950617;28;20329;-79
2022/11/08 01:49:13;;;;;;;8.18;3.08;;;12.80;99.90;;;;;;4965119;28;20098;-80
2022/11/08 01:51:59;;;;;;;6.88;2.40;;;12.40;99.90;;;;;;4969650;28;20043;-79
2022/11/08 01:54:45;;;;;;;8.98;2.85;;;12.30;99.90;;;;;;4963910;28;20099;-79
2022/11/08 01:57:16;;;;;;;4.78;2.38;;;12.70;99.90;;;;;;4968148;28;20071;-79
2022/11/08 01:59:44;;;;;;;5.10;2.33;;;12.30;99.90;;;;;;4938029;29;20056;-79
2022/11/08 02:02:11;;;;;;;9.77;2.90;;;12.30;99.90;;;;;;4944079;28;20077;-79
2022/11/08 02:04:39;;;;;;;9.02;3.15;;;12.80;99.90;;;;;;4955543;28;20051;-80
2022/11/08 02:07:06;;;;;;;6.57;2.38;;;12.60;99.90;;;;;;4954742;29;20043;-79
2022/11/08 02:09:35;;;;;;;8.57;2.53;;;12.60;99.90;;;;;;4947859;28;20318;-79
2022/11/08 02:12:01;;;;;;;8.63;2.58;;;12.60;99.90;;;;;;4956032;29;20042;-79
2022/11/08 02:14:27;;;;;;;7.32;2.65;;;12.70;99.90;;;;;;4965464;28;20042;-80
2022/11/08 02:16:53;;;;;;;10.57;2.92;;;12.80;99.90;;;;;;4946618;29;20094;-79
2022/11/08 02:19:34;;;;;;;10.05;2.97;;;12.50;99.90;;;;;;4930306;28;20050;-80
2022/11/08 02:22:04;;;;;;;7.53;2.65;;;12.50;99.90;;;;;;4971064;28;20057;-80
2022/11/08 02:24:30;;;;;;;8.98;2.65;;;12.10;99.90;;;;;;4981372;28;20022;-79
2022/11/08 02:26:57;;;;;;;11.05;2.85;;;12.50;99.90;;;;;;4924222;28;20041;-79
2022/11/08 02:29:32;;;;;;;7.72;2.45;;;12.50;99.90;;;;;;4933680;28;20034;-80
2022/11/08 02:31:59;;;;;;;12.00;3.10;;;12.20;99.90;;;;;;4919836;29;20110;-80
2022/11/08 02:34:37;;;;;;;6.38;2.03;;;12.50;99.90;;;;;;4994676;28;20066;-79
2022/11/08 02:37:03;;;;;;;7.65;2.25;;;12.40;99.90;;;;;;4960895;28;20049;-79
2022/11/08 02:39:31;;;;;;;6.55;2.40;;;12.10;99.90;;;;;;4937818;28;20058;-79
2022/11/08 02:41:56;;;;;;;6.78;2.15;;;12.30;99.90;;;;;;4941992;29;20031;-81
2022/11/08 02:44:22;;;;;;;6.28;2.55;;;12.10;99.90;;;;;;4947493;28;20059;-81
2022/11/08 02:46:48;;;;;;;10.55;3.08;;;12.20;99.90;;;;;;4939929;29;20047;-80
2022/11/08 02:49:13;;;;;;;10.23;3.22;;;12.10;99.90;;;;;;4957945;28;20035;-80
2022/11/08 02:51:39;;;;;;;5.80;2.60;;;12.20;99.90;;;;;;4952191;28;20038;-80
2022/11/08 02:54:05;;;;;;;6.32;2.47;;;12.30;99.90;;;;;;4948808;28;20085;-80
2022/11/08 02:56:30;;;;;;;8.90;2.90;;;12.10;99.90;;;;;;4949205;28;20050;-80
2022/11/08 02:58:56;;;;;;;9.80;2.70;;;12.30;99.90;;;;;;4933370;28;20062;-79
2022/11/08 03:01:22;;;;;;;7.75;2.90;;;13.40;99.90;;;;;;4963130;28;20212;-80
2022/11/08 03:03:47;;;;;;;7.10;2.42;;;12.10;99.90;;;;;;4962635;29;20031;-80
2022/11/08 03:06:13;;;;;;;5.63;2.10;;;12.00;99.90;;;;;;4926190;29;20035;-80
2022/11/08 03:08:46;;;;;;;8.45;2.65;;;11.90;99.90;;;;;;4949012;28;20052;-79
2022/11/08 03:11:12;;;;;;;9.68;2.72;;;12.20;99.90;;;;;;4934026;28;20221;-80
2022/11/08 03:13:38;;;;;;;4.97;2.00;;;11.90;99.90;;;;;;4919979;28;20074;-80
2022/11/08 03:16:05;;;;;;;5.78;2.33;;;11.90;99.90;;;;;;4955241;28;20031;-79
2022/11/08 03:18:30;;;;;;;8.45;3.00;;;12.10;99.90;;;;;;4948137;28;20352;-79
2022/11/08 03:20:59;;;;;;;6.32;2.50;;;12.20;99.90;;;;;;4961322;29;20031;-80
2022/11/08 03:23:33;;;;;;;6.65;2.47;;;12.00;99.90;;;;;;4979151;28;20028;-80
2022/11/08 03:26:03;;;;;;;7.05;2.83;;;12.00;99.90;;;;;;4947800;29;20038;-80
2022/11/08 03:28:29;;;;;;;9.20;2.90;;;11.80;99.90;;;;;;4983341;28;20039;-80
2022/11/08 03:30:55;;;;;;;7.45;2.95;;;12.10;99.90;;;;;;4968699;28;20113;-80
2022/11/08 03:33:21;;;;;;;8.50;3.22;;;11.90;99.90;;;;;;4965239;28;20344;-80
2022/11/08 03:35:48;;;;;;;4.78;2.55;;;11.80;99.90;;;;;;4957497;29;20047;-80
2022/11/08 03:38:14;;;;;;;7.40;2.40;;;12.10;99.90;;;;;;4946332;28;20030;-81
2022/11/08 03:40:40;;;;;;;8.63;2.38;;;11.70;99.90;;;;;;4962561;28;20035;-81
2022/11/08 03:43:06;;;;;;;8.10;2.63;;;12.10;99.90;;;;;;4944598;29;20024;-80
2022/11/08 03:45:31;;;;;;;6.72;2.47;;;11.90;99.90;;;;;;4947784;28;20333;-80
2022/11/08 03:47:57;;;;;;;6.07;2.30;;;11.90;99.90;;;;;;4939999;28;20078;-79
2022/11/08 03:50:23;;;;;;;8.20;3.08;;;11.80;99.90;;;;;;4932422;29;20202;-79
2022/11/08 03:52:53;;;;;;;9.07;3.13;;;11.80;99.90;;;;;;4955947;29;20047;-79
2022/11/08 03:55:21;;;;;;;6.43;2.40;;;12.00;99.90;;;;;;4960074;29;20285;-79
2022/11/08 03:57:48;;;;;;;7.20;2.75;;;11.70;99.90;;;;;;4950871;29;20038;-79
2022/11/08 04:00:16;;;;;;;5.20;2.42;;;12.10;99.90;;;;;;4964298;29;20034;-80
2022/11/08 04:02:42;;;;;;;8.32;2.50;;;11.70;99.90;;;;;;4964455;29;20066;-81
2022/11/08 04:05:11;;;;;;;6.93;2.65;;;11.70;99.90;;;;;;4961718;28;20218;-79
2022/11/08 04:07:37;;;;;;;5.38;2.50;;;11.80;99.90;;;;;;4964598;28;20344;-80
2022/11/08 04:10:04;;;;;;;10.38;2.90;;;12.00;99.90;;;;;;4926960;29;20045;-80
2022/11/08 04:15:18;;;;;;;5.90;2.47;;;12.00;99.90;;;;;;4976988;28;20318;-80
2022/11/08 04:23:28;;;;;;;5.22;2.08;;;12.00;99.90;;;;;;4942205;29;20049;-80
2022/11/08 04:25:56;;;;;;;9.73;2.80;;;12.00;99.90;;;;;;4944757;29;20046;-79
2022/11/08 04:28:28;;;;;;;3.47;2.17;;;11.60;99.90;;;;;;4965139;28;20911;-79
2022/11/08 04:30:59;;;;;;;6.72;2.72;;;11.70;99.90;;;;;;4975510;28;20039;-80
2022/11/08 04:33:25;;;;;;;5.30;2.65;;;11.90;99.90;;;;;;4964088;29;20433;-78
2022/11/08 04:35:52;;;;;;;6.40;2.97;;;11.90;99.90;;;;;;4941427;29;20043;-79
2022/11/08 04:38:18;;;;;;;5.85;2.72;;;11.60;99.90;;;;;;4961128;29;20318;-79
2022/11/08 04:40:44;;;;;;;7.40;2.90;;;11.60;99.90;;;;;;4922830;29;20324;-81
2022/11/08 04:43:10;;;;;;;9.85;3.20;;;11.60;99.90;;;;;;4942766;29;20086;-80
2022/11/08 04:45:36;;;;;;;6.07;2.70;;;11.50;99.90;;;;;;4962451;28;20101;-80
2022/11/08 04:48:02;;;;;;;9.07;2.70;;;11.60;99.90;;;;;;4944460;29;20047;-82
2022/11/08 04:50:28;;;;;;;3.47;1.77;;;11.90;99.90;;;;;;4934369;29;20230;-80
2022/11/08 04:52:56;;;;;;;5.10;2.40;;;11.70;99.90;;;;;;4918657;29;20047;-80
2022/11/08 04:55:23;;;;;;;7.18;2.20;;;11.80;99.90;;;;;;4946335;29;20031;-80
2022/11/08 04:57:49;;;;;;;8.48;3.30;;;11.70;99.90;;;;;;4917381;29;20039;-80
2022/11/08 05:00:41;;;;;;;7.40;3.03;;;14.20;99.90;;;;;;4915231;29;20040;-80
2022/11/08 05:03:54;;;;;;;4.80;2.28;;;11.90;99.90;;;;;;4938069;28;20050;-81
2022/11/08 05:06:22;;;;;;;10.02;2.80;;;11.70;99.90;;;;;;4922042;29;20047;-77
2022/11/08 05:08:48;;;;;;;9.82;3.70;;;11.90;99.90;;;;;;4956459;29;20043;-79
2022/11/08 05:11:20;;;;;;;6.00;2.40;;;11.70;99.90;;;;;;4928804;29;20039;-78
2022/11/08 05:13:46;;;;;;;7.75;2.15;;;11.90;99.90;;;;;;4946420;29;20062;-79
2022/11/08 05:16:21;;;;;;;12.55;2.90;;;11.90;99.90;;;;;;4962958;29;20042;-78
2022/11/08 05:18:47;;;;;;;;;;;11.70;99.90;;;;;;4979935;28;20039;-79
2022/11/08 05:24:01;;;;;;;8.05;2.70;;;11.70;99.90;;;;;;4962454;29;20050;-79
2022/11/08 05:26:28;;;;;;;8.13;2.33;;;11.50;99.90;;;;;;4946933;29;20069;-78
2022/11/08 05:28:54;;;;;;;8.02;2.95;;;11.50;99.90;;;;;;4969331;28;20039;-78
2022/11/08 05:31:20;;;;;;;7.32;2.85;;;11.70;99.90;;;;;;4962024;29;20062;-79
2022/11/08 05:33:46;;;;;;;5.25;2.25;;;11.70;99.90;;;;;;4941259;29;20373;-80
2022/11/08 05:36:13;;;;;;;4.18;2.30;;;11.70;99.90;;;;;;4962263;29;20094;-79
2022/11/08 05:38:40;;;;;;;6.95;2.10;;;11.50;99.90;;;;;;4963234;29;20098;-79
2022/11/08 05:41:17;;;;;;;7.90;2.65;;;11.60;99.90;;;;;;4941683;29;20027;-79
2022/11/08 05:43:49;;;;;;;7.55;2.88;;;11.70;99.90;;;;;;4962390;29;20049;-80
2022/11/08 05:46:16;;;;;;;5.68;2.17;;;11.40;99.90;;;;;;4974095;28;20110;-80
2022/11/08 05:48:42;;;;;;;4.18;1.88;;;11.60;99.90;;;;;;4978841;28;20058;-79
2022/11/08 05:51:10;;;;;;;6.05;2.70;;;11.30;99.90;;;;;;4925711;29;20085;-80
2022/11/08 05:53:37;;;;;;;8.48;2.50;;;11.40;99.90;;;;;;4979219;28;20035;-78
2022/11/08 05:56:03;;;;;;;5.63;2.28;;;11.30;99.90;;;;;;4961454;29;20043;-78
2022/11/08 05:58:32;;;;;;;5.38;2.30;;;11.40;99.90;;;;;;4961130;29;20054;-80
2022/11/08 06:01:01;;;;;;;5.53;2.28;;;11.20;99.90;;;;;;4946270;29;20246;-78
2022/11/08 06:03:27;;;;;;;7.88;2.55;;;11.20;99.90;;;;;;4951217;29;20032;-77
2022/11/08 06:05:53;;;;;;;5.10;2.10;;;11.40;99.90;;;;;;4931765;29;20031;-78
2022/11/08 06:08:19;;;;;;;9.15;2.72;;;11.10;99.90;;;;;;4946093;29;20348;-77
2022/11/08 06:10:44;;;;;;;5.30;3.13;;;11.10;99.90;;;;;;4929782;29;20372;-78
2022/11/08 06:13:17;;;;;;;7.13;2.30;;;11.20;99.90;;;;;;4930420;29;20073;-80
2022/11/08 06:15:43;;;;;;;6.15;2.83;;;11.30;99.90;;;;;;4944014;28;20205;-78
2022/11/08 06:18:09;;;;;;;7.47;2.60;;;11.20;99.90;;;;;;4931061;29;20091;-80
2022/11/08 06:20:35;;;;;;;6.35;3.42;;;11.20;99.90;;;;;;4929305;29;20067;-80
2022/11/08 06:23:01;;;;;;;5.18;2.33;;;11.20;99.90;;;;;;4914153;29;20023;-79
2022/11/08 06:25:27;;;;;;;4.07;2.35;;;11.30;99.90;;;;;;4914930;29;20026;-80
2022/11/08 06:27:52;;;;;;;3.42;2.30;;;11.20;99.90;;;;;;4933021;29;20043;-80
2022/11/08 06:30:18;;;;;;;6.38;2.42;;;11.20;99.90;;;;;;4927969;29;20195;-81
2022/11/08 06:32:44;;;;;;;6.72;2.88;;;11.20;99.90;;;;;;4937279;29;20306;-80
2022/11/08 06:35:09;;;;;;;9.05;2.70;;;11.10;99.90;;;;;;4946325;29;20070;-79
2022/11/08 06:37:35;;;;;;;4.30;2.10;;;11.20;99.90;;;;;;4944783;28;20381;-78
2022/11/08 06:40:01;;;;;;;6.28;2.38;;;11.00;99.90;;;;;;4933774;28;20027;-80
2022/11/08 06:42:26;;;;;;;6.22;2.83;;;11.10;99.90;;;;;;4933821;29;20342;-78
2022/11/08 06:44:52;;;;;;;5.15;2.38;;;11.00;99.90;;;;;;4944169;29;20050;-80
2022/11/08 06:47:18;;;;;;;7.10;2.22;;;11.20;99.90;;;;;;4962134;29;20055;-80
2022/11/08 06:49:46;;;;;;;6.35;2.53;;;11.20;99.90;;;;;;4947129;29;20085;-80
2022/11/08 06:52:15;;;;;;;6.15;2.88;;;11.10;99.90;;;;;;4946778;29;20190;-80
2022/11/08 06:54:40;;;;;;;6.32;2.42;;;11.00;99.90;;;;;;4946957;29;20035;-80
2022/11/08 06:57:06;;;;;;;5.45;2.65;;;11.30;99.90;;;;;;4930607;28;20039;-81
2022/11/08 06:59:32;;;;;;;6.55;2.60;;;11.00;99.90;;;;;;4930923;29;20027;-80
2022/11/08 07:01:57;;;;;;;8.43;3.47;;;11.10;99.90;;;;;;4910276;29;20103;-80
2022/11/08 07:04:23;;;;;;;5.53;2.63;;;11.10;99.90;;;;;;4927743;29;20035;-80
2022/11/08 07:06:49;;;;;;;6.85;2.50;;;11.20;99.90;;;;;;4916675;29;20058;-80
2022/11/08 07:09:15;;;;;;;4.85;2.55;;;11.20;99.90;;;;;;4899176;29;20047;-82
2022/11/08 07:11:43;;;;;;;6.72;3.03;;;11.20;99.90;;;;;;4909274;29;20039;-81
2022/11/08 07:14:09;;;;;;;4.32;2.95;;;11.10;99.90;;;;;;4930321;29;20113;-80
2022/11/08 07:16:35;;;;;;;8.77;2.92;;;11.30;99.90;;;;;;4930717;29;20035;-80
2022/11/08 07:19:00;;;;;;;10.73;3.17;;;11.00;99.90;;;;;;4935819;29;20070;-78
2022/11/08 07:21:26;;;;;;;6.57;3.45;;;10.90;99.90;;;;;;4942379;29;20043;-80
2022/11/08 07:23:52;;;;;;;5.57;2.75;;;11.20;99.90;;;;;;4957140;28;20031;-79
2022/11/08 07:26:18;;;;;;;5.95;3.13;;;10.90;99.90;;;;;;4931206;28;20031;-77
2022/11/08 07:28:44;;;;;;;7.50;3.30;;;10.90;99.90;;;;;;4925475;28;20145;-77
2022/11/08 07:31:10;;;;;;;5.88;2.75;;;11.00;99.90;;;;;;4928286;29;20047;-77
2022/11/08 07:33:38;;;;;;;8.80;3.25;;;11.10;99.90;;;;;;4940651;29;20086;-77
2022/11/08 07:36:05;;;;;;;6.30;3.05;;;11.00;99.90;;;;;;4913957;29;20055;-79
2022/11/08 07:38:31;;;;;;;5.07;2.83;;;11.00;99.90;;;;;;4941344;28;20102;-76
2022/11/08 07:40:58;;;;;;;6.32;3.53;;;11.00;99.90;;;;;;4948889;29;20042;-78
2022/11/08 07:43:25;;;;;;;4.03;2.30;;;11.10;99.90;;;;;;4931946;29;20109;-79
2022/11/08 07:45:56;;;;;;;12.75;3.25;;;11.20;99.90;;;;;;4954150;28;20058;-78
2022/11/08 07:48:57;;;;;;;6.18;3.15;;;11.20;99.90;;;;;;4965733;28;20321;-78
2022/11/08 07:51:26;;;;;;;10.18;3.58;;;11.80;99.90;;;;;;4983975;28;20093;-79
2022/11/08 07:53:51;;;;;;;8.88;3.20;;;11.40;99.90;;;;;;4944948;28;20067;-82
2022/11/08 07:56:17;;;;;;;7.40;2.53;;;11.30;99.90;;;;;;4912185;28;20026;-80
2022/11/08 07:58:43;;;;;;;5.30;2.60;;;11.40;99.90;;;;;;4948673;28;20309;-79
2022/11/08 08:01:08;;;;;;;5.90;2.33;;;11.50;99.90;;;;;;4941981;28;20027;-79
2022/11/08 08:03:37;;;;;;;3.75;2.20;;;11.40;99.90;;;;;;4957760;28;20110;-76
2022/11/08 08:06:03;;;;;;;7.68;3.22;;;11.60;99.90;;;;;;4954220;28;20034;-76
2022/11/08 08:08:29;;;;;;;6.65;2.58;;;11.60;99.90;;;;;;4953696;28;20030;-79
2022/11/08 08:10:59;;;;;;;6.63;2.65;;;11.60;99.90;;;;;;4982704;28;20102;-80
2022/11/08 08:13:25;;;;;;;9.68;2.65;;;11.60;99.90;;;;;;4957459;28;20030;-78
2022/11/08 08:15:50;;;;;;;6.07;2.70;;;11.70;99.90;;;;;;4963925;28;20043;-78
2022/11/08 08:18:19;;;;;;;3.45;2.20;;;11.70;99.90;;;;;;4947475;28;20141;-75
2022/11/08 08:20:45;;;;;;;4.97;2.15;;;11.80;99.90;;;;;;4951183;28;20102;-76
2022/11/08 08:23:11;;;;;;;4.28;2.05;;;11.90;99.90;;;;;;4953402;28;20038;-79
2022/11/08 08:25:36;;;;;;;4.75;2.22;;;11.90;99.90;;;;;;4983481;28;20270;-76
2022/11/08 08:28:04;;;;;;;4.70;2.20;;;11.80;99.90;;;;;;4973386;28;20031;-78
2022/11/08 08:30:31;;;;;;;4.78;2.28;;;11.90;99.90;;;;;;4961892;28;20204;-78
2022/11/08 08:33:06;;;;;;;5.03;2.08;;;11.90;99.90;;;;;;4967042;28;20099;-78
2022/11/08 08:35:36;;;;;;;5.15;2.25;;;12.00;99.90;;;;;;4967158;28;20030;-81
2022/11/08 08:38:55;;;;;;;;;;;;;;;;;;;;;
2022/11/08 08:41:48;;;;;;;2.55;1.60;;;10.70;99.90;;;;;;4960896;28;20125;-80
2022/11/08 08:44:14;;;;;;;5.03;2.17;;;12.20;99.90;;;;;;4935627;28;20031;-80
2022/11/08 08:46:41;;;;;;;3.78;2.00;;;12.10;99.90;;;;;;4926715;28;20082;-79
2022/11/08 08:49:06;;;;;;;5.90;1.98;;;12.30;99.90;;;;;;4950939;28;20047;-78
2022/11/08 08:51:32;;;;;;;3.92;1.80;;;12.50;99.90;;;;;;4949128;28;20034;-79
2022/11/08 08:53:58;;;;;;;2.67;1.60;;;12.60;99.90;;;;;;4915666;29;20120;-79
2022/11/08 08:56:23;;;;;;;4.78;2.28;;;12.60;99.90;;;;;;4947838;28;20207;-79
2022/11/08 08:58:49;;;;;;;3.38;2.20;;;12.60;99.90;;;;;;4931835;29;20035;-79
2022/11/08 09:01:15;;;;;;;3.83;1.98;;;12.50;99.90;;;;;;4927927;29;20566;-79
2022/11/08 09:03:42;;;;;;;4.53;1.83;;;12.50;99.90;;;;;;4931295;29;20110;-80
2022/11/08 09:06:07;;;;;;;6.97;1.90;;;12.50;99.90;;;;;;4928171;29;20048;-80
2022/11/08 09:08:33;;;;;;;4.80;2.55;;;12.60;99.90;;;;;;4929600;29;20087;-79
2022/11/08 09:11:00;;;;;;;3.92;2.20;;;12.70;99.90;;;;;;4928170;29;20038;-80
2022/11/08 09:13:29;;;;;;;4.30;2.13;;;12.80;99.90;;;;;;4928695;29;20258;-80
2022/11/08 09:16:12;;;;;;;4.82;2.00;;;12.90;99.90;;;;;;4946322;29;20106;-80
2022/11/08 09:18:48;;;;;;;3.50;2.00;;;15.00;99.90;;;;;;4948652;29;20043;-80
2022/11/08 09:21:13;;;;;;;3.38;2.08;;;13.30;99.90;;;;;;4913841;29;20310;-81
2022/11/08 09:23:41;;;;;;;3.30;1.67;;;13.30;99.90;;;;;;4965367;28;20620;-79
2022/11/08 09:26:06;;;;;;;2.85;1.67;;;13.30;99.90;;;;;;4962595;28;20046;-80
2022/11/08 09:28:34;;;;;;;7.45;2.03;;;13.20;99.90;;;;;;4964634;28;20043;-79
2022/11/08 09:31:18;;;;;;;7.47;2.38;;;13.20;99.90;;;;;;4966158;28;20221;-79
2022/11/08 09:33:43;;;;;;;5.47;1.70;;;13.30;99.90;;;;;;4930588;29;20330;-79
2022/11/08 09:36:12;;;;;;;3.55;2.10;;;13.40;99.90;;;;;;4927616;29;20046;-81
2022/11/08 09:38:38;;;;;;;4.57;2.00;;;13.50;99.90;;;;;;4945819;29;20203;-81
2022/11/08 09:41:57;;;;;;;4.00;1.60;;;13.50;99.90;;;;;;4930825;29;20067;-82
2022/11/08 09:44:22;;;;;;;3.00;1.63;;;13.90;99.90;;;;;;4942906;29;20031;-80
2022/11/08 09:46:51;;;;;;;3.83;1.90;;;13.70;99.90;;;;;;4957419;28;20098;-79
2022/11/08 09:49:30;;;;;;;2.42;1.67;;;13.80;99.90;;;;;;4945848;28;20110;-81
2022/11/08 09:51:57;;;;;;;5.43;1.30;;;13.90;99.90;;;;;;4946139;29;20042;-79
2022/11/08 09:54:30;;;;;;;3.92;1.77;;;13.80;99.90;;;;;;4962179;28;20047;-79
2022/11/08 09:56:56;;;;;;;1.90;1.38;;;13.80;99.90;;;;;;4961947;28;20369;-79
2022/11/08 09:59:46;;;;;;;4.90;1.83;;;13.90;99.90;;;;;;4962454;28;20035;-79
2022/11/08 10:02:22;;;;;;;2.38;1.67;;;13.90;99.90;;;;;;4964492;28;20081;-80
2022/11/08 10:05:08;;;;;;;3.40;1.75;;;14.00;99.90;;;;;;4964864;28;20066;-78
2022/11/08 10:08:15;;;;;;;5.03;1.67;;;15.60;99.90;;;;;;4963068;28;20132;-80
2022/11/08 10:11:29;;;;;;;3.08;1.45;;;14.30;99.90;;;;;;4930374;28;20175;-80
2022/11/08 10:14:09;;;;;;;4.90;1.83;;;14.10;99.90;;;;;;4948370;28;20049;-82
2022/11/08 10:17:12;;;;;;;4.43;1.88;;;14.00;99.90;;;;;;4963407;28;20118;-79
2022/11/08 10:19:59;;;;;;;3.10;1.85;;;14.00;99.90;;;;;;4963511;28;20112;-80
2022/11/08 10:22:53;;;;;;;3.75;1.80;;;14.00;99.90;;;;;;4964543;28;20041;-82
2022/11/08 10:25:25;;;;;;;3.30;1.58;;;13.90;99.90;;;;;;4947905;28;20648;-78
2022/11/08 10:27:55;;;;;;;4.28;2.17;;;13.90;99.90;;;;;;4963924;28;20106;-78
2022/11/08 10:30:31;;;;;;;3.70;1.60;;;14.00;99.90;;;;;;4963375;28;20078;-78
2022/11/08 10:32:58;;;;;;;4.63;2.00;;;13.90;99.90;;;;;;4963766;28;20134;-78
2022/11/08 10:35:40;;;;;;;5.30;2.03;;;13.90;99.90;;;;;;4962981;28;20061;-77
2022/11/08 10:38:18;;;;;;;3.28;1.70;;;13.80;99.90;;;;;;4963319;28;20430;-78
2022/11/08 10:41:02;;;;;;;6.72;1.88;;;13.90;99.90;;;;;;4963170;28;20201;-78
2022/11/08 10:43:40;;;;;;;5.00;2.00;;;13.90;99.90;;;;;;4962768;28;20458;-78
2022/11/08 10:46:37;;;;;;;2.53;1.52;;;13.90;99.90;;;;;;4946162;29;20063;-78
2022/11/08 10:49:25;;;;;;;3.78;1.90;;;14.00;99.90;;;;;;4961458;29;20233;-79
2022/11/08 10:51:54;;;;;;;3.17;1.60;;;13.90;99.90;;;;;;4961039;29;20051;-80
2022/11/08 10:54:42;;;;;;;4.70;2.10;;;13.90;99.90;;;;;;4944962;29;20042;-79
2022/11/08 10:57:09;;;;;;;4.43;1.60;;;13.80;99.90;;;;;;4956591;29;20341;-79
2022/11/08 10:59:35;;;;;;;3.30;1.75;;;13.80;99.90;;;;;;4965357;28;20113;-81
2022/11/08 11:06:07;;;;;;;5.13;2.15;;;13.80;99.90;;;;;;4965825;29;20070;-78
2022/11/08 11:08:33;;;;;;;3.88;1.70;;;14.00;99.90;;;;;;4963275;29;20333;-77
2022/11/08 11:11:26;;;;;;;3.47;1.60;;;13.70;99.90;;;;;;4941622;29;20152;-79
2022/11/08 11:14:10;;;;;;;3.15;2.30;;;13.70;99.90;;;;;;4964475;29;20031;-77
2022/11/08 11:16:36;;;;;;;2.03;1.55;;;13.70;99.90;;;;;;4964727;29;20110;-78
2022/11/08 11:19:05;;;;;;;3.40;2.00;;;13.70;99.90;;;;;;4960021;29;20050;-78
2022/11/08 11:22:11;;;;;;;3.38;2.00;;;13.80;99.90;;;;;;4964762;29;20333;-78
2022/11/08 11:24:50;;;;;;;5.22;2.13;;;13.90;99.90;;;;;;4957528;28;20055;-79
2022/11/08 11:27:30;;;;;;;3.50;2.20;;;13.90;99.90;;;;;;4961729;29;20058;-79
2022/11/08 11:30:28;;;;;;;2.42;1.55;;;13.90;99.90;;;;;;4948642;29;20046;-79
2022/11/08 11:33:22;;;;;;;2.58;1.42;;;13.90;99.90;;;;;;4942168;29;20047;-79
2022/11/08 11:35:51;;;;;;;2.20;1.30;;;14.00;99.90;;;;;;4945207;29;20047;-79
2022/11/08 11:38:48;;;;;;;3.00;1.42;;;14.00;99.90;;;;;;4945452;29;20043;-78
2022/11/08 11:41:27;;;;;;;4.57;1.80;;;14.10;99.90;;;;;;4902008;29;20048;-78
2022/11/08 11:44:17;;;;;;;3.00;1.70;;;14.10;99.90;;;;;;4939165;29;20032;-79
2022/11/08 11:47:05;;;;;;;4.95;1.83;;;14.10;99.90;;;;;;4929153;29;20064;-78
2022/11/08 11:49:34;;;;;;;2.85;1.70;;;14.20;99.90;;;;;;4945025;29;20050;-77
2022/11/08 11:51:59;;;;;;;2.70;1.83;;;14.20;99.90;;;;;;4939811;29;20067;-77
2022/11/08 11:54:30;;;;;;;2.53;1.65;;;14.20;99.90;;;;;;4913527;29;20044;-77
2022/11/08 11:57:16;;;;;;;3.92;2.42;;;14.20;99.90;;;;;;4939232;29;20046;-79
2022/11/08 12:00:20;;;;;;;2.83;1.80;;;14.20;99.90;;;;;;4906594;29;20036;-78
2022/11/08 12:02:49;;;;;;;2.85;1.92;;;14.20;99.90;;;;;;4941743;29;20047;-79
2022/11/08 12:05:45;;;;;;;4.40;1.83;;;14.20;99.90;;;;;;4945692;29;20039;-80
2022/11/08 12:09:10;;;;;;;6.28;1.90;;;14.30;99.90;;;;;;4945248;29;20050;-77
2022/11/08 12:11:51;;;;;;;4.17;1.70;;;14.30;99.90;;;;;;4886997;29;20065;-78
2022/11/08 12:14:25;;;;;;;6.72;2.80;;;14.30;99.90;;;;;;4871996;29;20450;-78
2022/11/08 12:17:37;;;;;;;3.58;2.00;;;14.40;99.90;;;;;;4926925;29;20312;-78
2022/11/08 12:20:20;;;;;;;4.40;2.33;;;14.40;99.90;;;;;;4928977;29;20110;-77
2022/11/08 12:23:23;;;;;;;3.08;1.70;;;14.60;99.90;;;;;;4944263;29;20322;-78
2022/11/08 12:26:28;;;;;;;3.10;1.90;;;14.60;99.90;;;;;;4929193;29;20043;-80
2022/11/08 12:29:12;;;;;;;3.05;1.70;;;14.60;99.90;;;;;;4928982;29;20048;-79
2022/11/08 12:31:53;;;;;;;4.57;2.15;;;14.60;99.90;;;;;;4944962;29;20036;-79
2022/11/08 12:34:30;;;;;;;4.93;1.92;;;14.70;99.90;;;;;;4949113;29;20038;-78
2022/11/08 12:37:22;;;;;;;4.63;1.63;;;14.60;99.90;;;;;;4957726;29;20337;-79
2022/11/08 12:40:12;;;;;;;4.30;1.60;;;13.40;99.90;;;;;;4964204;28;20278;-80
2022/11/08 12:43:05;;;;;;;3.40;1.77;;;13.30;99.90;;;;;;4939599;29;20111;-74
2022/11/08 12:45:48;;;;;;;3.17;1.90;;;14.60;99.90;;;;;;4923517;29;20058;-77
2022/11/08 12:48:19;;;;;;;2.97;1.58;;;14.60;99.90;;;;;;4924506;29;20123;-78
2022/11/08 12:51:14;;;;;;;3.45;1.73;;;14.60;99.90;;;;;;4908154;29;20040;-78
2022/11/08 12:53:53;;;;;;;3.05;1.42;;;14.70;99.90;;;;;;4924087;29;20078;-78
2022/11/08 12:56:27;;;;;;;2.85;1.98;;;14.80;99.90;;;;;;4924655;29;20047;-77
2022/11/08 12:58:54;;;;;;;4.00;1.60;;;14.80;99.90;;;;;;4924262;29;20040;-78
2022/11/08 13:01:21;;;;;;;3.72;2.00;;;14.70;99.90;;;;;;4893160;29;20067;-78
2022/11/08 13:03:52;;;;;;;3.67;1.63;;;14.70;99.90;;;;;;4876413;29;20071;-79
2022/11/08 13:06:42;;;;;;;2.50;1.70;;;14.70;99.90;;;;;;4924126;29;20044;-79
2022/11/08 13:09:34;;;;;;;2.35;1.70;;;14.80;99.90;;;;;;4907836;29;20052;-78
2022/11/08 13:12:03;;;;;;;2.13;1.30;;;14.80;99.90;;;;;;4892576;29;20044;-79
2022/11/08 13:14:32;;;;;;;3.08;1.73;;;14.80;99.90;;;;;;4947001;29;20461;-79
2022/11/08 13:17:07;;;;;;;3.83;1.90;;;14.80;99.90;;;;;;4959074;29;20067;-78
2022/11/08 13:19:56;;;;;;;;;;;14.80;99.90;;;;;;4946590;29;20044;-79
2022/11/08 13:22:28;;;;;;;3.00;1.83;;;14.90;99.90;;;;;;4954111;28;19914;-79
2022/11/08 13:25:02;;;;;;;6.25;1.73;;;14.80;99.90;;;;;;4957048;29;20030;-78
2022/11/08 13:27:44;;;;;;;2.47;1.45;;;14.80;99.90;;;;;;4947692;28;20133;-78
2022/11/08 13:30:10;;;;;;;4.50;1.70;;;14.70;99.90;;;;;;4966156;28;20041;-78
2022/11/08 13:32:42;;;;;;;4.63;1.77;;;14.60;99.90;;;;;;4965169;28;20313;-78
2022/11/08 13:35:17;;;;;;;2.97;1.65;;;14.60;99.90;;;;;;4948754;29;20047;-79
2022/11/08 13:38:18;;;;;;;3.60;1.73;;;14.50;99.90;;;;;;4938092;29;20051;-78
2022/11/08 13:41:02;;;;;;;4.35;1.80;;;14.40;99.90;;;;;;4946179;29;20354;-78
2022/11/08 13:43:29;;;;;;;3.80;1.90;;;14.30;99.90;;;;;;4946577;28;20214;-78
2022/11/08 13:46:16;;;;;;;4.00;1.75;;;14.20;99.90;;;;;;4938143;28;20058;-79